Terminal Aerodrome Forecast
Issued by NWS Green Bay, WI

Home | Current Version | Previous Version | Graphics & Text | Print | Product List | Glossary On
Versions: 1 2 3 4 5 6 7 8 9 10 11 12 13 14 15 16 17 18 19 20 21 22 23 24 25 26 27 28 29 30 31 32 33 34 35 36 37 38
000
FTUS43 KGRB 261737
TAFGRB
TAF
KGRB 261737Z 2618/2718 29008KT P6SM BKN150
     FM262000 26006KT P6SM FEW040 BKN150
     FM270200 00000KT P6SM SCT100 BKN140
     FM270900 VRB03KT 6SM -RA BR SCT025 OVC060
     FM271200 09006KT 3SM -RA BR BKN015=

USA.gov is the U.S. government's official web portal to all federal, state and local government web resources and services.